Seaham, United Kingdom
Current Conditions -  °F | °C
As of 11:20 AM on Friday 24 Oct 2014 (Local Time) from EGNT Reporting Station
Scattered Clouds Scattered Clouds  
Wind Chill: 54°   Ceiling: Unl
Heat Index: 54°   Visibility: 6mi
Dew Point: 45°   Wind: 7mph
Humidity: 72%   Direction: 230°SW
Pressure: 29.83"   Gusts: NA
Location:  54.84°N, 1.34°W
Report Text: EGNT 241020Z 23006KT 180V260 9999 SCT045 12/07 Q1010
Loading
Personal Weather Stations






























Interactive Weather Map
Tropical Storm Tracking
New forecast layout! Learn more

10-Day Weather Forecast

Advertisements
Track Severe Weather on mobile